<?xml version="1.0" encoding="UTF-8" standalone="no" ?>
<gpx xmlns="http://www.topografix.com/GPX/1/1" xmlns:xsi="http://www.w3.org/2001/XMLSchema-instance" xsi:schemaLocation="http://www.topografix.com/GPX/1/1 http://www.topografix.com/GPX/1/1/gpx.xsd" version="1.1" creator="VisuGPX - https://www.visugpx.com">
  <metadata>
    <name>De Meillerie à Salvigny</name>
    <desc><![CDATA[Randonnée en Haute-Savoie]]></desc>
  </metadata>
  <trk>
    <name><![CDATA[ACTIVE LOG: 30 JUL 2015 07:13]]></name>
    <trkseg>
      <trkpt lat="46.04636" lon="6.76963">
        <ele>827.35</ele>
        <time>2015-07-30T05:13:55Z</time>
      </trkpt>
      <trkpt lat="46.04704" lon="6.76958">
        <ele>824.47</ele>
        <time>2015-07-30T05:15:00Z</time>
      </trkpt>
      <trkpt lat="46.04782" lon="6.76975">
        <ele>817.74</ele>
        <time>2015-07-30T05:16:05Z</time>
      </trkpt>
      <trkpt lat="46.04834" lon="6.77017">
        <ele>812.93</ele>
        <time>2015-07-30T05:17:10Z</time>
      </trkpt>
      <trkpt lat="46.0487" lon="6.77095">
        <ele>809.57</ele>
        <time>2015-07-30T05:18:15Z</time>
      </trkpt>
      <trkpt lat="46.04915" lon="6.77149">
        <ele>805.24</ele>
        <time>2015-07-30T05:19:20Z</time>
      </trkpt>
      <trkpt lat="46.04968" lon="6.77175">
        <ele>799.47</ele>
        <time>2015-07-30T05:20:25Z</time>
      </trkpt>
      <trkpt lat="46.05029" lon="6.77232">
        <ele>793.22</ele>
        <time>2015-07-30T05:21:30Z</time>
      </trkpt>
      <trkpt lat="46.05096" lon="6.77256">
        <ele>786.98</ele>
        <time>2015-07-30T05:22:35Z</time>
      </trkpt>
      <trkpt lat="46.05176" lon="6.77273">
        <ele>782.65</ele>
        <time>2015-07-30T05:23:40Z</time>
      </trkpt>
      <trkpt lat="46.0524" lon="6.77328">
        <ele>774.48</ele>
        <time>2015-07-30T05:24:45Z</time>
      </trkpt>
      <trkpt lat="46.0528" lon="6.77432">
        <ele>771.6</ele>
        <time>2015-07-30T05:25:50Z</time>
      </trkpt>
      <trkpt lat="46.05335" lon="6.77493">
        <ele>767.75</ele>
        <time>2015-07-30T05:26:55Z</time>
      </trkpt>
      <trkpt lat="46.05401" lon="6.77515">
        <ele>763.9</ele>
        <time>2015-07-30T05:28:00Z</time>
      </trkpt>
      <trkpt lat="46.05454" lon="6.77567">
        <ele>763.42</ele>
        <time>2015-07-30T05:29:05Z</time>
      </trkpt>
      <trkpt lat="46.05511" lon="6.77575">
        <ele>763.42</ele>
        <time>2015-07-30T05:30:10Z</time>
      </trkpt>
      <trkpt lat="46.05557" lon="6.7756">
        <ele>763.9</ele>
        <time>2015-07-30T05:31:15Z</time>
      </trkpt>
      <trkpt lat="46.0557" lon="6.77548">
        <ele>763.9</ele>
        <time>2015-07-30T05:31:41Z</time>
      </trkpt>
    </trkseg>
  </trk>
</gpx>